createdAt,value
2018-07-17T00:01:02.485Z,2.20
2018-07-17T00:03:31.341Z,2.60
2018-07-17T00:06:00.152Z,2.07
2018-07-17T00:08:28.854Z,2.10
2018-07-17T00:10:57.567Z,2.27
2018-07-17T00:13:26.408Z,2.57
2018-07-17T00:15:55.153Z,2.40
2018-07-17T00:18:23.982Z,2.20
2018-07-17T00:20:52.861Z,2.20
2018-07-17T00:23:21.623Z,2.13
2018-07-17T00:25:50.360Z,2.17
2018-07-17T00:28:19.047Z,2.60
2018-07-17T00:30:47.928Z,2.47
2018-07-17T00:33:16.844Z,2.60
2018-07-17T00:35:45.793Z,2.20
2018-07-17T00:38:14.589Z,2.50
2018-07-17T00:40:43.332Z,1.93
2018-07-17T00:43:12.131Z,2.30
2018-07-17T00:45:40.968Z,2.00
2018-07-17T00:48:09.757Z,2.23
2018-07-17T00:50:38.541Z,2.00
2018-07-17T00:53:07.258Z,2.10
2018-07-17T00:55:35.979Z,2.10
2018-07-17T00:58:04.744Z,2.70
2018-07-17T01:00:38.763Z,2.13
2018-07-17T01:03:12.779Z,2.10
2018-07-17T01:05:46.779Z,2.50
2018-07-17T01:08:20.888Z,2.10
2018-07-17T01:10:54.953Z,2.10
2018-07-17T01:13:33.990Z,2.50
2018-07-17T01:16:02.838Z,2.73
2018-07-17T01:18:31.610Z,2.70
2018-07-17T01:21:00.521Z,2.60
2018-07-17T01:23:29.263Z,2.10
2018-07-17T01:25:58.068Z,2.77
2018-07-17T01:28:26.774Z,2.23
2018-07-17T01:30:55.497Z,2.30
2018-07-17T01:33:24.296Z,2.00
2018-07-17T01:35:53.067Z,2.10
2018-07-17T01:38:21.711Z,2.40
2018-07-17T01:40:50.505Z,2.40
2018-07-17T01:43:19.304Z,2.13
2018-07-17T01:45:48.165Z,2.53
2018-07-17T01:48:16.976Z,2.50
2018-07-17T01:50:45.650Z,2.20
2018-07-17T01:53:14.396Z,2.60
2018-07-17T01:55:43.256Z,2.13
2018-07-17T01:58:12.030Z,2.60
2018-07-17T02:00:40.978Z,2.30
2018-07-17T02:03:09.778Z,2.37
2018-07-17T02:05:38.611Z,2.40
2018-07-17T02:08:07.546Z,2.37
2018-07-17T02:10:36.402Z,2.70
2018-07-17T02:13:05.142Z,2.90
2018-07-17T02:15:33.822Z,2.33
2018-07-17T02:18:02.506Z,2.73
2018-07-17T02:20:31.228Z,2.30
2018-07-17T02:23:00.030Z,2.30
2018-07-17T02:25:28.911Z,2.50
2018-07-17T02:27:57.726Z,2.40
2018-07-17T02:30:26.455Z,2.80
2018-07-17T02:32:55.235Z,2.40
2018-07-17T02:35:24.071Z,2.30
2018-07-17T02:37:52.860Z,2.40
2018-07-17T02:40:21.628Z,2.37
2018-07-17T02:42:50.370Z,2.27
2018-07-17T02:45:19.203Z,2.40
2018-07-17T02:47:47.957Z,2.17
2018-07-17T02:50:16.819Z,2.20
2018-07-17T02:52:45.610Z,2.60
2018-07-17T02:55:14.435Z,2.50
2018-07-17T02:57:43.206Z,2.27
2018-07-17T03:00:12.068Z,2.33
2018-07-17T03:02:40.878Z,2.40
2018-07-17T03:05:09.630Z,2.33
2018-07-17T03:07:38.387Z,2.67
2018-07-17T03:10:07.195Z,2.93
2018-07-17T03:12:35.999Z,2.73
2018-07-17T03:15:04.916Z,2.97
2018-07-17T03:17:33.787Z,2.70
2018-07-17T03:20:02.602Z,2.97
2018-07-17T03:22:31.417Z,3.13
2018-07-17T03:25:00.217Z,3.00
2018-07-17T03:27:28.986Z,2.40
2018-07-17T03:29:57.796Z,3.00
2018-07-17T03:32:26.610Z,3.03
2018-07-17T03:34:55.486Z,2.90
2018-07-17T03:37:24.194Z,2.50
2018-07-17T03:39:53.032Z,2.70
2018-07-17T03:42:21.796Z,2.90
2018-07-17T03:44:50.629Z,2.67
2018-07-17T03:47:19.354Z,2.40
2018-07-17T03:49:48.190Z,2.83
2018-07-17T03:52:16.966Z,2.47
2018-07-17T03:54:45.661Z,2.97
2018-07-17T03:57:14.669Z,2.83
2018-07-17T03:59:43.518Z,2.90
2018-07-17T04:02:12.342Z,2.97
2018-07-17T04:04:41.150Z,2.50
2018-07-17T04:07:09.946Z,2.83
2018-07-17T04:09:38.782Z,2.73
2018-07-17T04:12:07.849Z,2.73
2018-07-17T04:14:36.708Z,3.00
2018-07-17T04:17:05.575Z,3.13
2018-07-17T04:19:34.379Z,3.80
2018-07-17T04:22:03.175Z,3.60
2018-07-17T04:24:31.999Z,3.30
2018-07-17T04:27:00.759Z,3.20
2018-07-17T04:29:29.563Z,3.70
2018-07-17T04:31:58.316Z,3.47
2018-07-17T04:34:27.068Z,3.30
2018-07-17T04:36:55.810Z,3.93
2018-07-17T04:39:24.607Z,4.40
2018-07-17T04:41:53.424Z,4.00
2018-07-17T04:44:22.764Z,4.20
2018-07-17T04:46:51.642Z,4.33
2018-07-17T04:49:20.607Z,3.97
2018-07-17T04:51:50.698Z,3.80
2018-07-17T04:54:19.430Z,3.80
2018-07-17T04:56:48.254Z,4.00
2018-07-17T04:59:17.245Z,3.67
2018-07-17T05:01:46.092Z,4.27
2018-07-17T05:04:14.942Z,3.80
2018-07-17T05:06:45.660Z,3.80
2018-07-17T05:09:14.481Z,3.93
2018-07-17T05:11:43.690Z,4.27
2018-07-17T05:14:12.321Z,4.23
2018-07-17T05:16:41.352Z,4.40
2018-07-17T05:19:10.746Z,4.43
2018-07-17T05:21:39.497Z,4.33
2018-07-17T05:24:08.341Z,3.97
2018-07-17T05:26:37.235Z,3.70
2018-07-17T05:29:06.210Z,4.03
2018-07-17T05:31:34.888Z,3.93
2018-07-17T05:34:03.711Z,3.77
2018-07-17T05:36:32.481Z,3.43
2018-07-17T05:39:01.221Z,4.40
2018-07-17T05:41:31.642Z,4.37
2018-07-17T05:44:00.470Z,4.30
2018-07-17T05:46:29.320Z,4.10
2018-07-17T05:48:58.301Z,4.40
2018-07-17T05:51:27.793Z,3.57
2018-07-17T05:53:57.244Z,4.23
2018-07-17T05:56:26.098Z,3.73
2018-07-17T05:58:54.942Z,4.80
2018-07-17T06:01:23.696Z,4.80
2018-07-17T06:03:52.373Z,4.57
2018-07-17T06:06:21.193Z,5.07
2018-07-17T06:08:49.935Z,5.10
2018-07-17T06:11:18.629Z,5.03
2018-07-17T06:13:47.522Z,5.73
2018-07-17T06:16:17.159Z,5.37
2018-07-17T06:18:46.008Z,5.27
2018-07-17T06:21:14.802Z,5.03
2018-07-17T06:23:43.570Z,4.83
2018-07-17T06:26:12.395Z,5.63
2018-07-17T06:28:41.165Z,5.03
2018-07-17T06:31:10.138Z,5.40
2018-07-17T06:33:39.073Z,5.33
2018-07-17T06:36:07.865Z,4.87
2018-07-17T06:38:36.735Z,6.17
2018-07-17T06:41:05.493Z,5.23
2018-07-17T06:43:34.336Z,5.30
2018-07-17T06:46:04.688Z,5.50
2018-07-17T06:48:33.601Z,5.20
2018-07-17T06:51:02.602Z,5.10
2018-07-17T06:53:31.529Z,5.63
2018-07-17T06:56:00.328Z,4.40
2018-07-17T06:58:29.133Z,4.30
2018-07-17T07:00:58.059Z,4.27
2018-07-17T07:03:26.862Z,4.43
2018-07-17T07:05:55.644Z,3.97
2018-07-17T07:08:24.467Z,4.10
2018-07-17T07:10:54.229Z,4.00
2018-07-17T07:13:23.030Z,4.10
2018-07-17T07:15:53.352Z,4.17
2018-07-17T07:18:22.133Z,4.10
2018-07-17T07:20:50.926Z,3.93
2018-07-17T07:23:19.822Z,4.30
2018-07-17T07:25:48.610Z,4.43
2018-07-17T07:28:17.382Z,4.10
2018-07-17T07:30:46.148Z,3.83
2018-07-17T07:33:14.993Z,3.77
2018-07-17T07:35:46.269Z,4.20
2018-07-17T07:38:14.967Z,4.20
2018-07-17T07:40:43.748Z,4.00
2018-07-17T07:43:13.727Z,4.43
2018-07-17T07:45:42.630Z,3.70
2018-07-17T07:48:11.413Z,4.43
2018-07-17T07:50:40.877Z,4.37
2018-07-17T07:53:09.733Z,4.40
2018-07-17T07:55:38.633Z,4.20
2018-07-17T07:58:08.898Z,4.13
2018-07-17T08:00:37.770Z,3.90
2018-07-17T08:03:06.564Z,3.87
2018-07-17T08:05:35.352Z,4.73
2018-07-17T08:08:04.258Z,4.47
2018-07-17T08:10:33.010Z,4.00
2018-07-17T08:13:01.992Z,4.17
2018-07-17T08:15:30.774Z,3.80
2018-07-17T08:18:00.838Z,4.87
2018-07-17T08:20:29.589Z,4.07
2018-07-17T08:22:58.349Z,4.60
2018-07-17T08:25:27.160Z,4.27
2018-07-17T08:27:55.875Z,5.03
2018-07-17T08:30:25.032Z,4.87
2018-07-17T08:32:54.050Z,4.83
2018-07-17T08:35:23.170Z,4.40
2018-07-17T08:37:51.967Z,4.80
2018-07-17T08:40:20.820Z,4.87
2018-07-17T08:42:49.610Z,4.57
2018-07-17T08:45:18.427Z,4.20
2018-07-17T08:51:19.384Z,5.37
2018-07-17T08:53:48.239Z,4.90
2018-07-17T08:56:17.244Z,4.63
2018-07-17T08:58:46.154Z,5.47
2018-07-17T09:01:14.946Z,5.20
2018-07-17T09:03:43.693Z,4.87
2018-07-17T09:06:12.480Z,5.50
2018-07-17T09:08:42.492Z,5.70
2018-07-17T09:11:11.402Z,5.63
2018-07-17T09:13:40.316Z,5.90
2018-07-17T09:16:09.043Z,5.67
2018-07-17T09:18:37.923Z,5.53
2018-07-17T09:21:07.467Z,5.20
2018-07-17T09:23:36.359Z,5.27
2018-07-17T09:26:06.072Z,5.60
2018-07-17T09:28:34.822Z,5.10
2018-07-17T09:31:03.913Z,6.00
2018-07-17T09:33:32.911Z,5.47
2018-07-17T09:36:01.823Z,5.67
2018-07-17T09:38:30.898Z,5.57
2018-07-17T09:41:01.733Z,5.47
2018-07-17T09:43:30.609Z,5.53
2018-07-17T09:45:59.510Z,5.43
2018-07-17T09:48:28.257Z,5.20
2018-07-17T09:50:57.133Z,5.13
2018-07-17T09:53:25.884Z,5.07
2018-07-17T09:55:54.537Z,5.20
2018-07-17T09:58:23.240Z,5.17
2018-07-17T10:00:57.133Z,5.10
2018-07-17T10:03:25.977Z,4.47
2018-07-17T10:05:54.712Z,4.43
2018-07-17T10:08:23.525Z,5.07
2018-07-17T10:10:52.398Z,5.50
2018-07-17T10:13:21.227Z,5.07
2018-07-17T10:15:50.035Z,5.03
2018-07-17T10:18:18.811Z,4.43
2018-07-17T10:20:49.334Z,4.10
2018-07-17T10:23:20.466Z,4.43
2018-07-17T10:25:49.183Z,4.23
2018-07-17T10:28:20.039Z,4.20
2018-07-17T10:30:48.767Z,4.37
2018-07-17T10:33:17.640Z,4.20
2018-07-17T10:35:46.398Z,4.37
2018-07-17T10:38:15.252Z,4.20
2018-07-17T10:40:44.198Z,4.63
2018-07-17T10:43:13.215Z,4.27
2018-07-17T10:45:42.084Z,4.40
2018-07-17T10:48:10.907Z,4.07
2018-07-17T10:50:39.696Z,3.90
2018-07-17T10:53:08.423Z,4.60
2018-07-17T10:55:38.629Z,4.00
2018-07-17T10:58:07.270Z,4.77
2018-07-17T11:00:37.165Z,3.90
2018-07-17T11:03:05.892Z,4.27
2018-07-17T11:05:34.755Z,4.40
2018-07-17T11:08:03.674Z,4.10
2018-07-17T11:10:32.458Z,4.10
2018-07-17T11:13:01.325Z,4.30
2018-07-17T11:15:30.093Z,3.77
2018-07-17T11:17:58.891Z,4.40
2018-07-17T11:20:27.604Z,3.60
2018-07-17T11:22:56.485Z,3.40
2018-07-17T11:25:26.516Z,4.17
2018-07-17T11:27:55.351Z,3.37
2018-07-17T11:30:24.137Z,3.40
2018-07-17T11:32:53.150Z,3.87
2018-07-17T11:35:22.191Z,4.10
2018-07-17T11:37:50.960Z,4.17
2018-07-17T11:40:19.820Z,3.67
2018-07-17T11:42:48.637Z,3.97
2018-07-17T11:45:18.666Z,4.00
2018-07-17T11:47:47.422Z,3.97
2018-07-17T11:50:16.260Z,3.73
2018-07-17T11:52:45.110Z,4.07
2018-07-17T11:55:13.922Z,3.83
2018-07-17T11:57:43.493Z,3.60
2018-07-17T12:00:12.150Z,3.47
2018-07-17T12:02:41.053Z,3.70
2018-07-17T12:05:09.845Z,3.20
2018-07-17T12:07:38.672Z,3.33
2018-07-17T12:10:07.402Z,3.20
2018-07-17T12:12:40.060Z,3.67
2018-07-17T12:15:08.694Z,3.10
2018-07-17T12:17:37.453Z,3.20
2018-07-17T12:20:06.478Z,3.37
2018-07-17T12:22:35.298Z,3.60
2018-07-17T12:25:04.204Z,3.50
2018-07-17T12:27:33.047Z,3.23
2018-07-17T12:30:01.827Z,3.47
2018-07-17T12:32:32.412Z,3.50
2018-07-17T12:35:01.427Z,2.93
2018-07-17T12:37:30.146Z,2.93
2018-07-17T12:39:58.941Z,3.13
2018-07-17T12:42:27.639Z,3.63
2018-07-17T12:44:56.408Z,3.57
2018-07-17T12:47:26.072Z,3.17
2018-07-17T12:49:54.795Z,3.80
2018-07-17T12:52:23.594Z,3.53
2018-07-17T12:54:52.384Z,3.53
2018-07-17T12:57:21.159Z,4.03
2018-07-17T12:59:50.077Z,3.27
2018-07-17T13:02:18.936Z,2.87
2018-07-17T13:04:47.912Z,3.10
2018-07-17T13:07:16.638Z,2.40
2018-07-17T13:09:45.552Z,2.37
2018-07-17T13:12:14.412Z,2.13
2018-07-17T13:14:43.809Z,2.10
2018-07-17T13:17:12.542Z,2.03
2018-07-17T13:19:41.381Z,2.03
2018-07-17T13:22:10.097Z,2.60
2018-07-17T13:24:39.644Z,1.80
2018-07-17T13:27:08.483Z,1.93
2018-07-17T13:29:37.346Z,2.20
2018-07-17T13:32:06.121Z,2.20
2018-07-17T13:34:34.826Z,2.10
2018-07-17T13:37:07.616Z,1.80
2018-07-17T13:39:36.449Z,2.07
2018-07-17T13:42:05.305Z,2.20
2018-07-17T13:44:34.102Z,1.83
2018-07-17T13:47:03.639Z,2.40
2018-07-17T13:49:32.409Z,1.93
2018-07-17T13:52:01.246Z,2.50
2018-07-17T13:54:30.058Z,2.43
2018-07-17T13:56:58.963Z,2.00
2018-07-17T13:59:27.854Z,2.20
2018-07-17T14:01:56.727Z,2.30
2018-07-17T14:04:25.560Z,2.33
2018-07-17T14:06:54.374Z,2.40
2018-07-17T14:09:23.253Z,2.33
2018-07-17T14:11:52.011Z,2.27
2018-07-17T14:14:21.072Z,2.50
2018-07-17T14:16:49.746Z,2.17
2018-07-17T14:19:18.895Z,2.23
2018-07-17T14:21:47.614Z,2.77
2018-07-17T14:24:16.449Z,2.30
2018-07-17T14:26:47.740Z,2.60
2018-07-17T14:29:16.693Z,8.47
2018-07-17T14:31:45.511Z,3.00
2018-07-17T14:34:14.443Z,2.60
2018-07-17T14:36:43.250Z,2.83
2018-07-17T14:39:13.433Z,2.60
2018-07-17T14:41:42.925Z,2.60
2018-07-17T14:44:12.204Z,2.60
2018-07-17T14:46:40.963Z,3.13
2018-07-17T14:49:09.845Z,3.10
2018-07-17T14:51:39.393Z,2.70
2018-07-17T14:54:08.309Z,3.10
2018-07-17T14:56:37.272Z,2.50
2018-07-17T14:59:06.053Z,3.00
2018-07-17T15:01:34.866Z,2.70
2018-07-17T15:04:03.721Z,3.10
2018-07-17T15:06:32.666Z,3.20
2018-07-17T15:09:01.580Z,3.00
2018-07-17T15:11:30.409Z,3.10
2018-07-17T15:13:59.202Z,3.10
2018-07-17T15:16:29.406Z,3.13
2018-07-17T15:18:58.105Z,3.00
2018-07-17T15:21:27.019Z,3.00
2018-07-17T15:23:55.862Z,2.90
2018-07-17T15:26:24.613Z,2.83
2018-07-17T15:28:53.427Z,4.37
2018-07-17T15:31:22.122Z,3.00
2018-07-17T15:33:50.897Z,3.40
2018-07-17T15:36:19.620Z,3.23
2018-07-17T15:38:49.153Z,2.73
2018-07-17T15:41:17.896Z,3.23
2018-07-17T15:43:46.762Z,3.53
2018-07-17T15:46:15.800Z,3.23
2018-07-17T15:48:46.203Z,3.10
2018-07-17T15:51:15.002Z,3.10
2018-07-17T15:53:44.068Z,3.23
2018-07-17T15:56:12.795Z,3.07
2018-07-17T15:58:41.613Z,3.27
2018-07-17T16:01:10.338Z,3.37
2018-07-17T16:03:39.110Z,2.83
2018-07-17T16:06:08.805Z,3.07
2018-07-17T16:08:37.565Z,3.17
2018-07-17T16:11:06.512Z,2.60
2018-07-17T16:13:35.421Z,2.90
2018-07-17T16:16:04.140Z,3.13
2018-07-17T16:18:32.977Z,2.67
2018-07-17T16:21:02.041Z,2.40
2018-07-17T16:23:30.645Z,2.60
2018-07-17T16:25:59.479Z,2.70
2018-07-17T16:28:28.236Z,3.53
2018-07-17T16:30:56.918Z,3.50
2018-07-17T16:33:25.614Z,2.37
2018-07-17T16:35:54.465Z,2.77
2018-07-17T16:38:23.255Z,2.23
2018-07-17T16:40:52.065Z,2.27
2018-07-17T16:43:20.809Z,2.57
2018-07-17T16:45:51.229Z,2.30
2018-07-17T16:48:20.001Z,2.50
2018-07-17T16:50:48.872Z,2.33
2018-07-17T16:53:17.650Z,2.27
2018-07-17T16:55:46.560Z,1.90
2018-07-17T16:58:15.203Z,2.50
2018-07-17T17:00:43.945Z,2.00
2018-07-17T17:03:12.623Z,1.93
2018-07-17T17:05:41.467Z,2.40
2018-07-17T17:08:10.271Z,2.40
2018-07-17T17:10:39.097Z,2.00
2018-07-17T17:13:09.274Z,2.20
2018-07-17T17:15:38.155Z,2.40
2018-07-17T17:18:06.983Z,2.10
2018-07-17T17:20:35.821Z,2.13
2018-07-17T17:23:04.714Z,2.17
2018-07-17T17:25:33.478Z,2.07
2018-07-17T17:28:02.235Z,1.93
2018-07-17T17:30:31.074Z,2.10
2018-07-17T17:32:59.905Z,2.40
2018-07-17T17:35:28.662Z,2.30
2018-07-17T17:37:57.565Z,2.30
2018-07-17T17:40:26.367Z,2.30
2018-07-17T17:42:55.043Z,1.70
2018-07-17T17:45:24.009Z,2.33
2018-07-17T17:47:52.777Z,2.03
2018-07-17T17:50:21.541Z,2.30
2018-07-17T17:52:50.316Z,2.20
2018-07-17T17:55:19.033Z,2.33
2018-07-17T17:57:47.825Z,2.10
2018-07-17T18:00:16.589Z,2.57
2018-07-17T18:02:45.275Z,2.33
2018-07-17T18:05:14.105Z,2.50
2018-07-17T18:07:42.930Z,2.20
2018-07-17T18:10:11.739Z,2.33
2018-07-17T18:12:40.452Z,2.50
2018-07-17T18:15:09.469Z,2.40
2018-07-17T18:17:38.596Z,2.20
2018-07-17T18:20:07.418Z,2.47
2018-07-17T18:22:36.237Z,2.23
2018-07-17T18:25:04.970Z,2.33
2018-07-17T18:27:33.777Z,2.43
2018-07-17T18:30:02.641Z,2.33
2018-07-17T18:32:31.549Z,2.80
2018-07-17T18:35:02.576Z,2.20
2018-07-17T18:37:31.359Z,2.40
2018-07-17T18:40:02.744Z,2.27
2018-07-17T18:42:31.497Z,2.70
2018-07-17T18:45:00.423Z,2.40
2018-07-17T18:47:29.185Z,3.03
2018-07-17T18:50:12.312Z,2.60
2018-07-17T18:52:26.994Z,2.30
2018-07-17T18:54:55.715Z,2.70
2018-07-17T18:57:24.495Z,2.40
2018-07-17T18:59:53.262Z,3.27
2018-07-17T19:02:21.988Z,3.00
2018-07-17T19:04:50.876Z,2.70
2018-07-17T19:07:19.645Z,2.70
2018-07-17T19:09:48.381Z,2.70
2018-07-17T19:12:17.203Z,2.70
2018-07-17T19:14:45.967Z,2.97
2018-07-17T19:17:14.678Z,2.43
2018-07-17T19:19:43.476Z,2.83
2018-07-17T19:22:12.314Z,2.80
2018-07-17T19:24:41.159Z,2.70
2018-07-17T19:27:09.920Z,2.83
2018-07-17T19:29:38.614Z,2.87
2018-07-17T19:32:07.394Z,2.70
2018-07-17T19:34:36.298Z,3.13
2018-07-17T19:37:05.102Z,3.63
2018-07-17T19:39:33.775Z,3.03
2018-07-17T19:42:03.119Z,3.00
2018-07-17T19:44:31.938Z,3.20
2018-07-17T19:47:00.791Z,2.60
2018-07-17T19:49:29.608Z,3.00
2018-07-17T19:51:58.385Z,2.90
2018-07-17T19:54:27.264Z,2.90
2018-07-17T19:56:56.068Z,3.20
2018-07-17T19:59:24.901Z,2.90
2018-07-17T20:01:53.829Z,3.20
2018-07-17T20:04:22.658Z,3.10
2018-07-17T20:06:51.330Z,3.10
2018-07-17T20:09:20.073Z,3.50
2018-07-17T20:11:48.854Z,2.83
2018-07-17T20:14:17.709Z,3.10
2018-07-17T20:16:46.530Z,3.10
2018-07-17T20:19:15.350Z,3.03
2018-07-17T20:21:44.202Z,3.00
2018-07-17T20:24:12.919Z,3.10
2018-07-17T20:26:41.613Z,2.80
2018-07-17T20:29:10.330Z,3.27
2018-07-17T20:31:39.137Z,3.30
2018-07-17T20:34:07.956Z,2.87
2018-07-17T20:36:37.493Z,3.10
2018-07-17T20:39:07.962Z,2.97
2018-07-17T20:41:36.880Z,2.67
2018-07-17T20:44:06.012Z,3.33
2018-07-17T20:46:34.700Z,3.60
2018-07-17T20:49:03.390Z,2.90
2018-07-17T20:51:32.200Z,2.70
2018-07-17T20:54:00.966Z,2.70
2018-07-17T20:56:29.818Z,2.93
2018-07-17T20:58:58.596Z,2.90
2018-07-17T21:01:27.470Z,2.93
2018-07-17T21:03:56.253Z,2.80
2018-07-17T21:06:25.055Z,3.30
2018-07-17T21:08:54.009Z,3.33
2018-07-17T21:11:22.918Z,2.90
2018-07-17T21:13:51.753Z,3.07
2018-07-17T21:16:20.501Z,3.20
2018-07-17T21:18:49.389Z,3.50
2018-07-17T21:21:18.106Z,2.83
2018-07-17T21:23:46.975Z,3.23
2018-07-17T21:26:15.817Z,3.30
2018-07-17T21:28:44.540Z,3.47
2018-07-17T21:31:13.247Z,3.30
2018-07-17T21:33:42.030Z,3.20
2018-07-17T21:36:10.631Z,3.03
2018-07-17T21:38:39.430Z,3.30
2018-07-17T21:41:08.216Z,3.83
2018-07-17T21:43:36.963Z,3.50
2018-07-17T21:46:05.879Z,3.57
2018-07-17T21:48:34.687Z,3.40
2018-07-17T21:51:03.464Z,3.77
2018-07-17T21:53:32.237Z,3.50
2018-07-17T21:56:01.096Z,3.53
2018-07-17T21:58:29.847Z,3.53
2018-07-17T22:00:58.774Z,3.40
2018-07-17T22:03:27.598Z,3.33
2018-07-17T22:05:56.435Z,3.70
2018-07-17T22:08:25.278Z,3.70
2018-07-17T22:10:54.084Z,3.30
2018-07-17T22:13:22.762Z,3.50
2018-07-17T22:15:51.541Z,3.60
2018-07-17T22:18:22.018Z,3.80
2018-07-17T22:20:50.938Z,3.50
2018-07-17T22:23:19.714Z,3.30
2018-07-17T22:25:48.558Z,3.50
2018-07-17T22:28:17.413Z,3.10
2018-07-17T22:30:46.178Z,3.23
2018-07-17T22:33:14.872Z,3.50
2018-07-17T22:35:43.707Z,3.40
2018-07-17T22:38:12.450Z,3.70
2018-07-17T22:40:41.265Z,3.30
2018-07-17T22:43:10.038Z,4.07
2018-07-17T22:45:38.808Z,3.80
2018-07-17T22:48:07.518Z,3.83
2018-07-17T22:50:36.385Z,4.07
2018-07-17T22:53:05.158Z,3.80
2018-07-17T22:55:33.978Z,3.37
2018-07-17T22:58:02.864Z,3.63
2018-07-17T23:00:31.660Z,3.80
2018-07-17T23:03:00.368Z,3.63
2018-07-17T23:05:29.078Z,3.77
2018-07-17T23:07:57.969Z,4.00
2018-07-17T23:10:26.728Z,4.07
2018-07-17T23:12:55.516Z,4.00
2018-07-17T23:15:24.289Z,3.60
2018-07-17T23:17:53.238Z,3.67
2018-07-17T23:20:22.141Z,3.63
2018-07-17T23:22:55.115Z,3.30
2018-07-17T23:25:24.932Z,3.50
2018-07-17T23:27:54.124Z,4.00
2018-07-17T23:30:22.844Z,3.63
2018-07-17T23:32:51.993Z,3.77
2018-07-17T23:35:21.701Z,3.57
2018-07-17T23:37:51.007Z,3.53
2018-07-17T23:40:21.383Z,3.67
2018-07-17T23:42:50.262Z,3.83
2018-07-17T23:45:19.146Z,4.07
2018-07-17T23:47:48.614Z,4.47
2018-07-17T23:50:17.322Z,3.73
2018-07-17T23:52:46.129Z,3.83
2018-07-17T23:55:14.966Z,3.63
2018-07-17T23:57:43.733Z,4.33
